createdAt,value
2022-11-03T00:00:53.523Z,2.95
2022-11-03T00:02:55.168Z,3
2022-11-03T00:04:56.311Z,3.03
2022-11-03T00:06:58.181Z,2.96
2022-11-03T00:08:59.299Z,3.07
2022-11-03T00:11:00.393Z,3.13
2022-11-03T00:13:02.159Z,3.09
2022-11-03T00:15:04.008Z,2.98
2022-11-03T00:17:06.038Z,2.91
2022-11-03T00:19:07.263Z,2.84
2022-11-03T00:21:08.355Z,2.85
2022-11-03T00:23:09.728Z,2.89
2022-11-03T00:25:10.926Z,2.82
2022-11-03T00:27:12.839Z,2.83
2022-11-03T00:29:14.766Z,2.8
2022-11-03T00:31:16.232Z,2.86
2022-11-03T00:33:17.559Z,2.83
2022-11-03T00:35:18.833Z,2.83
2022-11-03T00:37:20.578Z,2.87
2022-11-03T00:39:22.052Z,2.88
2022-11-03T00:41:23.702Z,2.83
2022-11-03T00:43:25.176Z,2.84
2022-11-03T00:45:26.676Z,2.86
2022-11-03T00:47:27.915Z,2.86
2022-11-03T00:49:29.113Z,2.88
2022-11-03T00:51:30.201Z,2.84
2022-11-03T00:53:31.352Z,2.86
2022-11-03T00:55:32.793Z,2.82
2022-11-03T00:57:34.618Z,2.78
2022-11-03T00:59:36.034Z,2.67
2022-11-03T01:01:42.252Z,2.57
2022-11-03T01:03:38.951Z,2.64
2022-11-03T01:05:40.841Z,2.46
2022-11-03T01:07:42.624Z,2.43
2022-11-03T01:09:44.593Z,2.4
2022-11-03T01:11:45.794Z,2.39
2022-11-03T01:13:47.579Z,2.38
2022-11-03T01:15:49.021Z,2.35
2022-11-03T01:17:50.833Z,2.36
2022-11-03T01:19:52.351Z,2.32
2022-11-03T01:21:53.477Z,2.4
2022-11-03T01:23:55.119Z,2.4
2022-11-03T01:25:56.767Z,2.4
2022-11-03T01:27:58.674Z,2.42
2022-11-03T01:29:59.974Z,2.45
2022-11-03T01:32:01.947Z,2.4
2022-11-03T01:34:03.077Z,2.36
2022-11-03T01:36:04.993Z,2.31
2022-11-03T01:38:06.470Z,2.24
2022-11-03T01:40:07.705Z,2.26
2022-11-03T01:42:09.501Z,2.27
2022-11-03T01:44:10.831Z,2.35
2022-11-03T01:46:12.432Z,2.37
2022-11-03T01:48:13.624Z,2.38
2022-11-03T01:50:15.356Z,2.56
2022-11-03T01:52:17.334Z,2.73
2022-11-03T01:54:19.082Z,2.77
2022-11-03T01:56:20.224Z,2.85
2022-11-03T01:58:21.712Z,2.84
2022-11-03T02:00:23.101Z,2.87
2022-11-03T02:02:24.687Z,2.96
2022-11-03T02:04:26.122Z,2.98
2022-11-03T02:06:27.552Z,3.03
2022-11-03T02:08:28.872Z,3.02
2022-11-03T02:10:30.206Z,3.04
2022-11-03T02:12:31.371Z,3.01
2022-11-03T02:14:33.063Z,2.93
2022-11-03T02:16:34.421Z,2.96
2022-11-03T02:18:35.855Z,2.8
2022-11-03T02:20:37.706Z,2.7
2022-11-03T02:22:38.812Z,2.57
2022-11-03T02:24:39.928Z,2.52
2022-11-03T02:26:41.436Z,2.46
2022-11-03T02:28:42.534Z,2.45
2022-11-03T02:30:43.699Z,2.32
2022-11-03T02:32:44.860Z,2.19
2022-11-03T02:34:46.268Z,2.22
2022-11-03T02:36:48.092Z,2.26
2022-11-03T02:38:49.332Z,2.36
2022-11-03T02:39:42.285Z,2.39
2022-11-03T02:41:44.161Z,2.41
2022-11-03T02:43:45.958Z,2.37
2022-11-03T02:45:47.612Z,2.34
2022-11-03T02:47:48.965Z,2.32
2022-11-03T02:49:50.503Z,2.31
2022-11-03T02:51:52.159Z,2.34
2022-11-03T02:53:53.617Z,2.27
2022-11-03T02:55:55.453Z,2.19
2022-11-03T02:57:56.735Z,2.21
2022-11-03T02:59:58.226Z,2.21
2022-11-03T03:01:59.707Z,2.29
2022-11-03T03:04:01.128Z,2.39
2022-11-03T03:06:03.066Z,2.42
2022-11-03T03:08:05.022Z,2.47
2022-11-03T03:10:06.622Z,2.5
2022-11-03T03:12:07.690Z,2.52
2022-11-03T03:14:09.123Z,2.45
2022-11-03T03:16:10.461Z,2.39
2022-11-03T03:18:12.058Z,2.36
2022-11-03T03:20:13.961Z,2.29
2022-11-03T03:22:15.786Z,2.15
2022-11-03T03:24:17.393Z,2.2
2022-11-03T03:26:18.447Z,2.46
2022-11-03T03:28:19.799Z,2.47
2022-11-03T03:30:21.479Z,2.42
2022-11-03T03:32:22.885Z,2.25
2022-11-03T03:34:34.336Z,2.19
2022-11-03T03:36:26.310Z,2.06
2022-11-03T03:38:27.736Z,2.21
2022-11-03T03:40:29.611Z,2.37
2022-11-03T03:42:30.507Z,2.37
2022-11-03T03:44:32.465Z,2.45
2022-11-03T03:46:33.512Z,2.43
2022-11-03T03:48:34.841Z,2.39
2022-11-03T03:50:36.340Z,2.29
2022-11-03T03:52:37.636Z,2.31
2022-11-03T03:54:39.066Z,2.65
2022-11-03T03:56:40.199Z,2.75
2022-11-03T03:58:41.467Z,2.79
2022-11-03T04:00:43.077Z,2.8
2022-11-03T04:02:45.036Z,2.74
2022-11-03T04:04:46.952Z,2.63
2022-11-03T04:06:48.626Z,2.56
2022-11-03T04:08:49.936Z,2.47
2022-11-03T04:10:51.359Z,2.41
2022-11-03T04:12:53.118Z,2.38
2022-11-03T04:14:54.297Z,2.35
2022-11-03T04:16:55.453Z,2.29
2022-11-03T04:18:57.127Z,2.42
2022-11-03T04:20:59.095Z,2.46
2022-11-03T04:23:00.413Z,2.48
2022-11-03T04:25:01.704Z,2.55
2022-11-03T04:27:03.340Z,2.57
2022-11-03T04:29:04.600Z,2.49
2022-11-03T04:31:06.086Z,2.25
2022-11-03T04:33:07.968Z,2.08
2022-11-03T04:35:09.169Z,1.98
2022-11-03T04:37:11.015Z,1.93
2022-11-03T04:39:12.455Z,2.02
2022-11-03T04:41:14.151Z,1.97
2022-11-03T04:43:15.417Z,1.99
2022-11-03T04:45:17.096Z,2.01
2022-11-03T04:47:18.796Z,2.02
2022-11-03T04:49:20.165Z,2.07
2022-11-03T04:51:21.843Z,2.1
2022-11-03T04:53:22.898Z,2.04
2022-11-03T04:55:24.381Z,2.08
2022-11-03T04:57:26.128Z,1.98
2022-11-03T04:59:27.200Z,1.97
2022-11-03T05:01:28.357Z,1.9
2022-11-03T05:03:30.156Z,1.92
2022-11-03T05:05:31.729Z,1.96
2022-11-03T05:07:32.927Z,1.96
2022-11-03T05:09:35.938Z,2.05
2022-11-03T05:11:35.771Z,2.08
2022-11-03T05:13:37.774Z,2.04
2022-11-03T05:15:39.545Z,2.09
2022-11-03T05:17:41.261Z,2.19
2022-11-03T05:19:42.893Z,2.22
2022-11-03T05:21:44.142Z,2.33
2022-11-03T05:23:45.843Z,2.39
2022-11-03T05:25:47.639Z,2.38
2022-11-03T05:27:49.627Z,2.3
2022-11-03T05:29:52.148Z,2.26
2022-11-03T05:31:52.257Z,2.44
2022-11-03T05:33:54.103Z,2.41
2022-11-03T05:35:55.868Z,2.24
2022-11-03T05:37:57.073Z,2.11
2022-11-03T05:39:58.887Z,2.09
2022-11-03T05:42:00.056Z,2.02
2022-11-03T05:44:01.403Z,1.95
2022-11-03T05:46:03.436Z,1.89
2022-11-03T05:48:04.900Z,1.91
2022-11-03T05:50:06.531Z,1.88
2022-11-03T05:52:07.688Z,1.94
2022-11-03T05:54:08.994Z,1.95
2022-11-03T05:56:10.352Z,2
2022-11-03T05:58:11.573Z,1.92
2022-11-03T06:00:13.367Z,1.88
2022-11-03T06:02:14.483Z,1.98
2022-11-03T06:04:15.946Z,1.84
2022-11-03T06:06:17.555Z,1.89
2022-11-03T06:08:18.673Z,1.92
2022-11-03T06:10:20.663Z,1.83
2022-11-03T06:12:22.054Z,1.9
2022-11-03T06:14:24.562Z,2.07
2022-11-03T06:16:25.449Z,2.25
2022-11-03T06:18:26.951Z,2.23
2022-11-03T06:20:28.984Z,2.12
2022-11-03T06:22:30.613Z,2.15
2022-11-03T06:24:31.861Z,2.16
2022-11-03T06:26:32.983Z,2.16
2022-11-03T06:28:34.239Z,2.18
2022-11-03T06:32:37.612Z,2.27
2022-11-03T06:34:39.209Z,2.24
2022-11-03T06:36:41.242Z,2.29
2022-11-03T06:38:42.315Z,2.42
2022-11-03T06:40:44.073Z,2.42
2022-11-03T06:42:45.237Z,2.37
2022-11-03T06:44:46.988Z,2.32
2022-11-03T06:46:48.426Z,2.44
2022-11-03T06:48:49.447Z,2.55
2022-11-03T06:50:51.049Z,2.57
2022-11-03T06:52:52.657Z,2.51
2022-11-03T06:54:53.705Z,2.4
2022-11-03T06:56:55.307Z,2.38
2022-11-03T06:58:57.163Z,2.39
2022-11-03T07:01:02.950Z,2.5
2022-11-03T07:03:00.378Z,2.57
2022-11-03T07:05:01.864Z,2.53
2022-11-03T07:07:02.993Z,2.59
2022-11-03T07:09:04.315Z,2.67
2022-11-03T07:11:05.726Z,2.59
2022-11-03T07:13:07.352Z,3.01
2022-11-03T07:15:08.589Z,3.38
2022-11-03T07:17:10.026Z,3.35
2022-11-03T07:19:11.011Z,3.42
2022-11-03T07:21:12.984Z,3.49
2022-11-03T07:23:15.293Z,3.42
2022-11-03T07:25:17.192Z,3.66
2022-11-03T07:27:19.328Z,3.75
2022-11-03T07:29:21.139Z,3.72
2022-11-03T07:31:22.251Z,3.87
2022-11-03T07:33:23.454Z,4.23
2022-11-03T07:35:25.171Z,4.4
2022-11-03T07:37:27.069Z,4.77
2022-11-03T07:39:28.560Z,4.86
2022-11-03T07:41:32.794Z,4.76
2022-11-03T07:43:31.862Z,4.33
2022-11-03T07:45:32.987Z,4.59
2022-11-03T07:47:34.360Z,4.4
2022-11-03T07:49:36.374Z,4.39
2022-11-03T07:51:38.496Z,4.47
2022-11-03T07:55:42.085Z,4.58
2022-11-03T07:57:43.165Z,4.59
2022-11-03T07:59:45.047Z,4.6
2022-11-03T08:01:46.540Z,4.82
2022-11-03T08:03:48.097Z,5.2
2022-11-03T08:05:49.847Z,5.53
2022-11-03T08:07:50.933Z,5.73
2022-11-03T08:09:53.568Z,5.76
2022-11-03T08:11:54.720Z,6.23
2022-11-03T08:13:56.271Z,6.73
2022-11-03T08:15:58.088Z,7.11
2022-11-03T08:17:59.954Z,7.24
2022-11-03T08:20:01.402Z,7.07
2022-11-03T08:22:02.519Z,7.19
2022-11-03T08:24:03.637Z,7.29
2022-11-03T08:26:04.967Z,7.29
2022-11-03T08:28:05.869Z,7.84
2022-11-03T08:30:07.747Z,7.8
2022-11-03T08:32:09.558Z,7.97
2022-11-03T08:34:10.950Z,7.72
2022-11-03T08:36:12.645Z,7.94
2022-11-03T08:38:13.648Z,7.84
2022-11-03T08:40:14.985Z,8.09
2022-11-03T08:42:16.561Z,7.89
2022-11-03T08:44:17.842Z,8.22
2022-11-03T08:46:18.870Z,8.45
2022-11-03T08:48:19.769Z,8.43
2022-11-03T08:50:21.722Z,8.31
2022-11-03T08:52:22.649Z,8.45
2022-11-03T08:54:24.316Z,8.63
2022-11-03T08:56:26.024Z,8.59
2022-11-03T08:58:27.847Z,8.34
2022-11-03T09:00:29.564Z,8.09
2022-11-03T09:02:30.981Z,8.02
2022-11-03T09:04:32.502Z,8.27
2022-11-03T09:06:33.924Z,8.16
2022-11-03T09:10:38.391Z,8.25
2022-11-03T09:12:37.755Z,8.56
2022-11-03T09:14:39.155Z,8.94
2022-11-03T09:16:40.575Z,9.31
2022-11-03T09:18:42.150Z,9.52
2022-11-03T09:20:43.150Z,9.95
2022-11-03T09:22:44.897Z,10.06
2022-11-03T09:24:46.578Z,10.03
2022-11-03T09:27:31.769Z,10.25
2022-11-03T09:29:51.882Z,10.41
2022-11-03T09:31:34.118Z,10.53
2022-11-03T09:33:35.187Z,10.8
2022-11-03T09:35:37.000Z,11.21
2022-11-03T09:37:38.373Z,11.59
2022-11-03T09:39:39.789Z,11.64
2022-11-03T09:41:57.032Z,11.99
2022-11-03T09:43:42.319Z,12.01
2022-11-03T09:45:43.410Z,12.12
2022-11-03T09:47:44.558Z,12.05
2022-11-03T09:49:46.071Z,12.24
2022-11-03T09:51:47.376Z,12.46
2022-11-03T09:53:48.975Z,12.86
2022-11-03T09:55:50.295Z,13.29
2022-11-03T09:57:51.535Z,13.42
2022-11-03T09:59:52.589Z,13.29
2022-11-03T10:01:53.853Z,13.48
2022-11-03T10:03:55.240Z,13.77
2022-11-03T10:05:56.129Z,13.78
2022-11-03T10:07:57.132Z,14.12
2022-11-03T10:09:58.134Z,14.4
2022-11-03T10:11:59.399Z,14.48
2022-11-03T10:14:00.802Z,13.99
2022-11-03T10:16:02.078Z,13.23
2022-11-03T10:18:03.297Z,13.26
2022-11-03T10:20:04.682Z,13.29
2022-11-03T10:22:06.056Z,13.21
2022-11-03T10:24:07.680Z,13.56
2022-11-03T10:26:09.323Z,13.87
2022-11-03T10:28:14.330Z,13.78
2022-11-03T10:30:12.406Z,13.97
2022-11-03T10:32:14.017Z,13.89
2022-11-03T10:34:14.960Z,14.15
2022-11-03T10:36:16.370Z,14.25
2022-11-03T10:38:18.084Z,14.34
2022-11-03T10:40:46.464Z,14.06
2022-11-03T10:42:20.699Z,14.31
2022-11-03T10:44:21.779Z,14.5
2022-11-03T10:46:44.472Z,14.1
2022-11-03T10:48:24.300Z,13.78
2022-11-03T10:50:26.056Z,13.73
2022-11-03T10:52:27.772Z,13.83
2022-11-03T10:54:28.613Z,13.86
2022-11-03T10:56:30.217Z,13.93
2022-11-03T10:58:31.533Z,13.85
2022-11-03T11:00:33.307Z,13.89
2022-11-03T11:02:34.443Z,14.02
2022-11-03T11:04:36.316Z,13.77
2022-11-03T11:06:37.628Z,13.8
2022-11-03T11:08:39.590Z,14.03
2022-11-03T11:10:40.820Z,14.17
2022-11-03T11:12:42.559Z,14.11
2022-11-03T11:14:44.162Z,14.23
2022-11-03T11:16:45.049Z,14.47
2022-11-03T11:18:46.226Z,14.7
2022-11-03T11:20:47.070Z,14.81
2022-11-03T11:22:48.449Z,14.91
2022-11-03T11:24:49.870Z,15.04
2022-11-03T11:26:51.183Z,15.05
2022-11-03T11:28:52.657Z,14.98
2022-11-03T11:30:53.522Z,14.79
2022-11-03T11:32:54.763Z,14.82
2022-11-03T11:34:56.108Z,14.8
2022-11-03T11:36:56.967Z,14.98
2022-11-03T11:38:58.734Z,14.78
2022-11-03T11:40:59.696Z,14.79
2022-11-03T11:43:01.305Z,14.98
2022-11-03T11:45:02.257Z,14.67
2022-11-03T11:47:04.106Z,14.91
2022-11-03T11:49:05.251Z,14.83
2022-11-03T11:51:06.601Z,14.85
2022-11-03T11:53:07.708Z,14.84
2022-11-03T11:57:09.989Z,14.75
2022-11-03T11:59:11.251Z,14.82
2022-11-03T12:01:12.469Z,14.82
2022-11-03T12:03:13.660Z,14.88
2022-11-03T12:05:14.931Z,14.79
2022-11-03T12:07:16.243Z,14.48
2022-11-03T12:09:17.573Z,14.6
2022-11-03T12:11:18.861Z,14.53
2022-11-03T12:13:20.461Z,14.36
2022-11-03T12:15:21.684Z,14.35
2022-11-03T12:17:23.054Z,14.49
2022-11-03T12:19:24.787Z,14.47
2022-11-03T12:21:26.083Z,14.38
2022-11-03T12:23:27.215Z,14.43
2022-11-03T12:25:28.504Z,14.27
2022-11-03T12:27:29.437Z,14.31
2022-11-03T12:29:30.333Z,14.29
2022-11-03T12:31:33.039Z,14.28
2022-11-03T12:33:33.589Z,14.21
2022-11-03T12:35:34.841Z,14.17
2022-11-03T12:37:35.910Z,14.16
2022-11-03T12:39:36.968Z,14.14
2022-11-03T12:41:38.297Z,14.06
2022-11-03T12:43:39.387Z,14.02
2022-11-03T12:45:40.681Z,13.98
2022-11-03T12:47:42.067Z,13.91
2022-11-03T12:49:43.712Z,13.96
2022-11-03T12:51:45.257Z,13.91
2022-11-03T12:53:47.096Z,13.87
2022-11-03T12:55:48.794Z,13.94
2022-11-03T12:57:50.438Z,13.94
2022-11-03T12:59:51.836Z,13.83
2022-11-03T13:01:53.297Z,13.88
2022-11-03T13:03:55.051Z,13.89
2022-11-03T13:05:56.687Z,13.84
2022-11-03T13:07:58.517Z,13.81
2022-11-03T13:09:59.432Z,13.79
2022-11-03T13:12:00.824Z,13.7
2022-11-03T13:14:02.384Z,13.64
2022-11-03T13:16:03.797Z,13.73
2022-11-03T13:18:13.667Z,13.67
2022-11-03T13:20:06.609Z,13.68
2022-11-03T13:22:07.861Z,13.73
2022-11-03T13:24:09.603Z,13.7
2022-11-03T13:26:10.926Z,13.6
2022-11-03T13:28:11.844Z,13.54
2022-11-03T13:30:13.326Z,13.46
2022-11-03T13:32:14.908Z,13.38
2022-11-03T13:34:16.269Z,13.38
2022-11-03T13:36:17.187Z,13.37
2022-11-03T13:38:18.736Z,13.38
2022-11-03T13:40:43.009Z,13.4
2022-11-03T13:42:21.295Z,13.44
2022-11-03T13:44:23.179Z,13.46
2022-11-03T13:46:24.283Z,13.41
2022-11-03T13:50:27.017Z,13.44
2022-11-03T13:52:28.796Z,13.49
2022-11-03T13:56:32.245Z,13.44
2022-11-03T14:00:34.243Z,13.38
2022-11-03T14:06:37.933Z,13.53
2022-11-03T14:08:38.932Z,13.42
2022-11-03T14:10:40.486Z,13.44
2022-11-03T14:12:41.666Z,13.35
2022-11-03T14:14:43.118Z,13.32
2022-11-03T14:16:44.821Z,13.36
2022-11-03T14:20:47.212Z,13.27
2022-11-03T14:22:48.695Z,13.29
2022-11-03T14:24:49.618Z,13.27
2022-11-03T14:26:50.815Z,13.27
2022-11-03T14:28:52.003Z,13.31
2022-11-03T14:30:53.494Z,13.29
2022-11-03T14:32:59.283Z,13.27
2022-11-03T14:34:56.497Z,13.26
2022-11-03T14:36:58.183Z,12.97
2022-11-03T14:38:59.162Z,13.16
2022-11-03T14:41:00.754Z,13.04
2022-11-03T14:43:01.678Z,12.94
2022-11-03T14:45:02.643Z,12.93
2022-11-03T14:47:03.638Z,13.15
2022-11-03T14:49:04.612Z,13.14
2022-11-03T14:51:06.362Z,13.15
2022-11-03T14:53:08.257Z,12.82
2022-11-03T14:55:09.643Z,12.86
2022-11-03T14:57:10.664Z,13.08
2022-11-03T14:59:11.755Z,12.92
2022-11-03T15:01:12.796Z,12.75
2022-11-03T15:03:14.309Z,12.63
2022-11-03T15:05:16.221Z,12.8
2022-11-03T15:07:18.066Z,12.7
2022-11-03T15:09:19.118Z,12.89
2022-11-03T15:11:20.477Z,12.82
2022-11-03T15:13:21.667Z,12.77
2022-11-03T15:15:23.017Z,12.71
2022-11-03T15:17:24.851Z,12.67
2022-11-03T15:19:25.863Z,12.7
2022-11-03T15:21:27.418Z,12.78
2022-11-03T15:25:30.092Z,12.79
2022-11-03T15:27:30.769Z,12.68
2022-11-03T15:29:32.002Z,12.67
2022-11-03T15:31:33.329Z,12.63
2022-11-03T15:33:34.388Z,12.52
2022-11-03T15:35:35.837Z,12.59
2022-11-03T15:37:37.203Z,12.73
2022-11-03T15:39:38.330Z,12.56
2022-11-03T15:41:39.970Z,12.78
2022-11-03T15:43:41.236Z,12.67
2022-11-03T15:45:42.174Z,12.7
2022-11-03T15:47:44.090Z,12.78
2022-11-03T15:49:45.255Z,12.66
2022-11-03T15:51:46.357Z,12.63
2022-11-03T15:53:47.623Z,12.59
2022-11-03T15:55:49.191Z,12.61
2022-11-03T15:57:50.219Z,12.6
2022-11-03T16:01:56.712Z,12.58
2022-11-03T16:03:54.579Z,12.51
2022-11-03T16:05:55.488Z,12.55
2022-11-03T16:07:57.073Z,12.52
2022-11-03T16:09:58.254Z,12.44
2022-11-03T16:12:43.835Z,12.5
2022-11-03T16:14:45.159Z,12.47
2022-11-03T16:16:46.778Z,12.33
2022-11-03T16:18:48.577Z,12.28
2022-11-03T16:20:49.930Z,12.3
2022-11-03T16:24:53.151Z,12.16
2022-11-03T16:26:54.069Z,12.15
2022-11-03T16:28:55.233Z,12.19
2022-11-03T16:30:57.040Z,12.07
2022-11-03T16:32:58.612Z,12.15
2022-11-03T16:34:59.588Z,12.13
2022-11-03T16:37:01.189Z,12.08
2022-11-03T16:39:02.761Z,12.07
2022-11-03T16:41:04.068Z,12.12
2022-11-03T16:43:05.249Z,12.03
2022-11-03T16:45:06.588Z,12.04
2022-11-03T16:47:08.192Z,11.93
2022-11-03T16:49:09.426Z,11.78
2022-11-03T16:51:11.191Z,11.79
2022-11-03T16:53:12.566Z,11.75
2022-11-03T16:55:13.841Z,11.8
2022-11-03T16:57:14.920Z,11.81
2022-11-03T16:59:16.802Z,11.82
2022-11-03T17:01:18.568Z,11.79
2022-11-03T17:03:19.605Z,11.73
2022-11-03T17:05:21.105Z,11.85
2022-11-03T17:07:21.957Z,11.88
2022-11-03T17:09:23.564Z,11.74
2022-11-03T17:11:25.167Z,11.81
2022-11-03T17:13:26.492Z,11.92
2022-11-03T17:15:27.873Z,11.9
2022-11-03T17:17:29.568Z,11.9
2022-11-03T17:19:30.891Z,11.97
2022-11-03T17:21:32.000Z,12.08
2022-11-03T17:23:33.846Z,11.96
2022-11-03T17:25:35.428Z,11.84
2022-11-03T17:27:36.901Z,11.82
2022-11-03T17:29:37.876Z,11.7
2022-11-03T17:31:39.230Z,11.65
2022-11-03T17:33:40.648Z,11.71
2022-11-03T17:35:42.153Z,11.78
2022-11-03T17:37:43.259Z,11.8
2022-11-03T17:39:44.424Z,11.77
2022-11-03T17:41:45.707Z,11.7
2022-11-03T17:43:46.999Z,11.76
2022-11-03T17:45:48.438Z,11.82
2022-11-03T17:47:50.184Z,11.71
2022-11-03T17:49:51.363Z,11.8
2022-11-03T17:51:52.826Z,11.79
2022-11-03T17:53:54.641Z,11.68
2022-11-03T17:56:23.811Z,11.78
2022-11-03T17:57:57.552Z,11.66
2022-11-03T17:59:59.323Z,11.57
2022-11-03T18:02:00.317Z,11.29
2022-11-03T18:04:01.608Z,11.27
2022-11-03T18:06:02.508Z,11.06
2022-11-03T18:08:04.103Z,11.17
2022-11-03T18:10:05.550Z,11.29
2022-11-03T18:12:06.994Z,10.86
2022-11-03T18:14:08.769Z,10.9
2022-11-03T18:16:09.978Z,11.52
2022-11-03T18:20:12.480Z,11.37
2022-11-03T18:22:13.789Z,11.31
2022-11-03T18:24:15.024Z,11.11
2022-11-03T18:26:16.181Z,11.01
2022-11-03T18:28:17.785Z,10.96
2022-11-03T18:30:19.620Z,10.83
2022-11-03T18:32:21.108Z,10.74
2022-11-03T18:34:22.336Z,10.62
2022-11-03T18:36:24.143Z,10.51
2022-11-03T18:38:25.574Z,10.5
2022-11-03T18:40:27.201Z,10.74
2022-11-03T18:42:28.555Z,10.72
2022-11-03T18:44:30.022Z,10.67
2022-11-03T18:46:31.510Z,10.76
2022-11-03T18:48:32.971Z,10.9
2022-11-03T18:50:34.765Z,10.92
2022-11-03T18:52:35.720Z,10.93
2022-11-03T18:54:37.506Z,10.69
2022-11-03T18:56:39.035Z,10.67
2022-11-03T18:58:40.328Z,10.84
2022-11-03T19:00:41.542Z,10.91
2022-11-03T19:02:43.285Z,10.9
2022-11-03T19:04:44.526Z,11.06
2022-11-03T19:06:45.645Z,10.86
2022-11-03T19:08:47.169Z,10.85
2022-11-03T19:10:48.587Z,10.88
2022-11-03T19:12:50.490Z,10.8
2022-11-03T19:14:52.197Z,10.83
2022-11-03T19:17:16.960Z,10.93
2022-11-03T19:18:54.994Z,10.87
2022-11-03T19:20:56.723Z,10.8
2022-11-03T19:22:58.261Z,10.57
2022-11-03T19:24:59.680Z,10.71
2022-11-03T19:27:00.819Z,10.87
2022-11-03T19:29:01.990Z,11
2022-11-03T19:31:03.394Z,11.05
2022-11-03T19:33:04.609Z,11.27
2022-11-03T19:35:06.166Z,10.79
2022-11-03T19:37:07.506Z,10.63
2022-11-03T19:39:08.915Z,10.59
2022-11-03T19:41:10.156Z,10.75
2022-11-03T19:43:11.406Z,10.81
2022-11-03T19:45:12.457Z,10.95
2022-11-03T19:47:13.736Z,11.2
2022-11-03T19:49:14.706Z,11.28
2022-11-03T19:51:16.422Z,11.41
2022-11-03T19:53:17.651Z,11.44
2022-11-03T19:55:19.364Z,11.44
2022-11-03T19:57:20.753Z,11.3
2022-11-03T19:59:22.376Z,11.09
2022-11-03T20:01:23.659Z,10.85
2022-11-03T20:03:25.128Z,10.79
2022-11-03T20:05:26.649Z,10.71
2022-11-03T20:07:31.384Z,10.78
2022-11-03T20:11:30.099Z,10.79
2022-11-03T20:13:31.183Z,11.04
2022-11-03T20:15:32.925Z,11.03
2022-11-03T20:17:34.376Z,11.03
2022-11-03T20:19:36.268Z,11.07
2022-11-03T20:21:37.899Z,11.04
2022-11-03T20:23:38.951Z,11.02
2022-11-03T20:25:40.454Z,11.11
2022-11-03T20:27:42.118Z,11.16
2022-11-03T20:29:43.416Z,11.11
2022-11-03T20:31:44.799Z,10.63
2022-11-03T20:33:46.033Z,10.47
2022-11-03T20:35:47.439Z,10.44
2022-11-03T20:37:48.491Z,10.73
2022-11-03T20:39:49.636Z,10.83
2022-11-03T20:41:50.871Z,10.96
2022-11-03T20:43:52.792Z,10.94
2022-11-03T20:45:54.896Z,10.53
2022-11-03T20:47:55.900Z,10.34
2022-11-03T20:49:56.920Z,10.28
2022-11-03T20:51:58.314Z,10.27
2022-11-03T20:53:59.987Z,10.2
2022-11-03T20:56:01.787Z,10.2
2022-11-03T20:58:03.633Z,10.28
2022-11-03T21:00:05.232Z,10.25
2022-11-03T21:02:07.227Z,10.2
2022-11-03T21:04:08.173Z,10.07
2022-11-03T21:06:09.646Z,10.03
2022-11-03T21:08:10.852Z,10.13
2022-11-03T21:10:14.548Z,10.13
2022-11-03T21:12:13.364Z,10.09
2022-11-03T21:14:14.935Z,10.03
2022-11-03T21:16:24.313Z,10.14
2022-11-03T21:18:17.611Z,10.4
2022-11-03T21:20:18.739Z,10.53
2022-11-03T21:22:31.185Z,10.54
2022-11-03T21:24:21.584Z,10.59
2022-11-03T21:26:23.299Z,10.4
2022-11-03T21:28:25.060Z,10.18
2022-11-03T21:30:26.536Z,10.27
2022-11-03T21:32:27.858Z,10.37
2022-11-03T21:34:29.623Z,10.54
2022-11-03T21:36:30.664Z,10.53
2022-11-03T21:38:32.388Z,10.51
2022-11-03T21:40:33.879Z,10.54
2022-11-03T21:42:35.500Z,10.55
2022-11-03T21:44:37.296Z,10.57
2022-11-03T21:46:38.790Z,10.59
2022-11-03T21:48:40.346Z,10.57
2022-11-03T21:50:41.843Z,10.74
2022-11-03T21:52:43.404Z,10.69
2022-11-03T21:54:44.938Z,10.64
2022-11-03T21:56:46.675Z,10.59
2022-11-03T21:58:48.299Z,10.71
2022-11-03T22:00:49.886Z,10.78
2022-11-03T22:02:50.903Z,10.86
2022-11-03T22:04:52.322Z,10.94
2022-11-03T22:06:53.855Z,10.9
2022-11-03T22:08:55.191Z,11.02
2022-11-03T22:10:56.754Z,11.01
2022-11-03T22:12:58.629Z,11.11
2022-11-03T22:15:00.298Z,11.09
2022-11-03T22:17:02.079Z,11.03
2022-11-03T22:19:03.751Z,10.99
2022-11-03T22:21:05.236Z,10.93
2022-11-03T22:23:06.186Z,10.88
2022-11-03T22:25:07.992Z,10.88
2022-11-03T22:27:09.881Z,10.86
2022-11-03T22:29:11.637Z,10.83
2022-11-03T22:31:13.025Z,10.85
2022-11-03T22:33:14.009Z,10.84
2022-11-03T22:35:15.480Z,11.08
2022-11-03T22:37:16.577Z,11.03
2022-11-03T22:39:17.850Z,11.1
2022-11-03T22:41:19.707Z,11.24
2022-11-03T22:43:21.121Z,11.19
2022-11-03T22:45:22.791Z,11.17
2022-11-03T22:47:24.393Z,11.07
2022-11-03T22:49:25.981Z,11.03
2022-11-03T22:51:27.232Z,11.13
2022-11-03T22:53:28.203Z,11.14
2022-11-03T22:55:29.207Z,11.07
2022-11-03T22:56:38.193Z,11.1
2022-11-03T22:58:39.600Z,11.15
2022-11-03T23:00:41.143Z,11.09
2022-11-03T23:02:42.140Z,11.1
2022-11-03T23:04:43.968Z,11.18
2022-11-03T23:06:44.907Z,11.23
2022-11-03T23:08:46.322Z,11.2
2022-11-03T23:10:47.825Z,11.25
2022-11-03T23:12:49.337Z,11.29
2022-11-03T23:14:50.585Z,11.16
2022-11-03T23:16:52.092Z,11.15
2022-11-03T23:18:53.046Z,11.15
2022-11-03T23:20:54.221Z,11.44
2022-11-03T23:22:55.670Z,11.47
2022-11-03T23:24:57.308Z,11.45
2022-11-03T23:26:59.058Z,11.56
2022-11-03T23:29:00.599Z,11.61
2022-11-03T23:31:01.827Z,11.63
2022-11-03T23:33:03.725Z,11.61
2022-11-03T23:35:05.322Z,11.49
2022-11-03T23:37:06.570Z,11.58
2022-11-03T23:39:07.639Z,11.5
2022-11-03T23:41:09.320Z,11.41
2022-11-03T23:45:12.877Z,11.32
2022-11-03T23:47:14.445Z,11.21
2022-11-03T23:49:16.050Z,11.09
2022-11-03T23:51:17.531Z,11.18
2022-11-03T23:53:19.067Z,11.16
2022-11-03T23:55:20.699Z,11.12
2022-11-03T23:57:22.183Z,11.09
2022-11-03T23:59:23.281Z,11.05
